createdAt,value
2022-12-28T00:01:23.557Z,10.30
2022-12-28T00:03:52.529Z,12.50
2022-12-28T00:06:22.398Z,11.80
2022-12-28T00:08:53.798Z,12.90
2022-12-28T00:11:26.478Z,10.30
2022-12-28T00:14:00.727Z,10.40
2022-12-28T00:16:31.052Z,15.97
2022-12-28T00:19:01.130Z,13.83
2022-12-28T00:21:30.185Z,10.33
2022-12-28T00:24:00.894Z,9.70
2022-12-28T00:26:31.766Z,9.53
2022-12-28T00:29:04.597Z,9.23
2022-12-28T00:31:33.582Z,12.00
2022-12-28T00:34:01.983Z,11.80
2022-12-28T00:37:09.901Z,11.63
2022-12-28T00:39:20.817Z,11.70
2022-12-28T00:41:49.225Z,9.97
2022-12-28T00:44:17.450Z,11.10
2022-12-28T00:46:45.742Z,10.10
2022-12-28T00:49:14.113Z,12.10
2022-12-28T00:51:42.339Z,9.97
2022-12-28T00:54:10.661Z,11.43
2022-12-28T00:56:41.786Z,9.83
2022-12-28T00:59:10.687Z,10.70
2022-12-28T01:01:39.808Z,9.00
2022-12-28T01:04:08.082Z,9.07
2022-12-28T01:06:36.340Z,9.30
2022-12-28T01:09:06.576Z,12.07
2022-12-28T01:11:36.025Z,7.63
2022-12-28T01:14:06.521Z,7.03
2022-12-28T01:16:36.530Z,9.63
2022-12-28T01:19:07.445Z,7.70
2022-12-28T01:21:37.591Z,8.80
2022-12-28T01:24:08.841Z,8.27
2022-12-28T01:26:37.637Z,11.77
2022-12-28T01:29:10.648Z,9.07
2022-12-28T01:31:38.889Z,11.03
2022-12-28T01:34:07.132Z,8.37
2022-12-28T01:36:36.043Z,9.77
2022-12-28T01:39:08.030Z,10.50
2022-12-28T01:41:39.521Z,9.90
2022-12-28T01:44:44.391Z,8.33
2022-12-28T01:47:20.693Z,12.40
2022-12-28T01:49:55.343Z,9.63
2022-12-28T01:52:28.807Z,10.30
2022-12-28T01:55:01.019Z,10.23
2022-12-28T01:57:34.764Z,9.17
2022-12-28T02:00:06.274Z,9.67
2022-12-28T02:02:45.629Z,11.27
2022-12-28T02:05:14.913Z,10.10
2022-12-28T02:07:47.736Z,10.70
2022-12-28T02:10:44.031Z,10.87
2022-12-28T02:13:06.624Z,11.03
2022-12-28T02:15:34.952Z,9.37
2022-12-28T02:18:05.143Z,11.33
2022-12-28T02:20:41.459Z,10.00
2022-12-28T02:23:28.660Z,9.37
2022-12-28T02:26:32.252Z,11.00
2022-12-28T02:29:16.538Z,9.53
2022-12-28T02:31:50.345Z,8.13
2022-12-28T02:34:27.709Z,10.03
2022-12-28T02:37:03.813Z,10.93
2022-12-28T02:39:39.438Z,9.10
2022-12-28T02:42:11.027Z,13.60
2022-12-28T02:44:58.365Z,8.97
2022-12-28T02:47:43.884Z,8.70
2022-12-28T02:50:16.656Z,6.43
2022-12-28T02:53:24.355Z,9.03
2022-12-28T02:56:09.522Z,6.53
2022-12-28T02:59:08.168Z,8.63
2022-12-28T03:02:06.364Z,9.10
2022-12-28T03:04:48.766Z,7.13
2022-12-28T03:07:39.220Z,8.83
2022-12-28T03:10:15.707Z,8.77
2022-12-28T03:12:49.755Z,8.80
2022-12-28T03:15:29.857Z,7.50
2022-12-28T03:18:24.473Z,7.87
2022-12-28T03:21:11.565Z,7.77
2022-12-28T03:24:01.094Z,8.17
2022-12-28T03:26:50.473Z,7.17
2022-12-28T03:29:39.425Z,6.60
2022-12-28T03:32:08.738Z,8.93
2022-12-28T03:34:39.874Z,5.67
2022-12-28T03:37:14.456Z,6.73
2022-12-28T03:39:51.782Z,9.20
2022-12-28T03:42:44.647Z,6.50
2022-12-28T03:45:44.385Z,6.57
2022-12-28T03:48:08.380Z,6.13
2022-12-28T03:50:40.563Z,7.83
2022-12-28T03:53:09.251Z,6.17
2022-12-28T03:55:40.691Z,8.77
2022-12-28T03:58:09.318Z,7.47
2022-12-28T04:00:39.238Z,7.10
2022-12-28T04:03:08.860Z,6.43
2022-12-28T04:05:38.571Z,5.83
2022-12-28T04:08:06.771Z,7.13
2022-12-28T04:10:35.477Z,4.80
2022-12-28T04:13:03.790Z,5.20
2022-12-28T04:16:00.639Z,8.13
2022-12-28T04:18:31.939Z,5.10
2022-12-28T04:21:02.923Z,5.40
2022-12-28T04:23:32.421Z,4.87
2022-12-28T04:26:22.553Z,5.30
2022-12-28T04:28:54.158Z,5.90
2022-12-28T04:31:25.464Z,3.50
2022-12-28T04:34:14.284Z,4.97
2022-12-28T04:36:50.472Z,6.77
2022-12-28T04:39:21.652Z,6.43
2022-12-28T04:41:50.148Z,4.63
2022-12-28T04:44:18.363Z,5.93
2022-12-28T04:46:46.725Z,6.20
2022-12-28T04:49:15.071Z,6.00
2022-12-28T04:51:43.285Z,5.87
2022-12-28T04:54:14.715Z,4.63
2022-12-28T04:56:42.974Z,4.13
2022-12-28T04:59:11.189Z,4.70
2022-12-28T05:01:39.671Z,4.27
2022-12-28T05:04:07.993Z,4.27
2022-12-28T05:06:36.253Z,4.73
2022-12-28T05:09:04.891Z,5.37
2022-12-28T05:11:34.555Z,3.23
2022-12-28T05:14:02.843Z,4.73
2022-12-28T05:16:31.618Z,4.50
2022-12-28T05:18:59.927Z,4.30
2022-12-28T05:21:29.555Z,3.13
2022-12-28T05:23:58.549Z,3.63
2022-12-28T05:26:28.755Z,3.40
2022-12-28T05:28:59.494Z,5.03
2022-12-28T05:31:28.993Z,4.57
2022-12-28T05:33:57.568Z,4.70
2022-12-28T05:36:27.584Z,4.50
2022-12-28T05:38:57.443Z,4.20
2022-12-28T05:41:27.238Z,4.43
2022-12-28T05:43:55.810Z,3.13
2022-12-28T05:46:27.834Z,4.90
2022-12-28T05:48:56.583Z,4.43
2022-12-28T05:51:26.295Z,4.10
2022-12-28T05:53:54.547Z,5.47
2022-12-28T05:56:24.939Z,2.80
2022-12-28T05:58:55.476Z,4.40
2022-12-28T06:01:27.640Z,6.77
2022-12-28T06:03:57.883Z,5.20
2022-12-28T06:06:26.495Z,4.03
2022-12-28T06:08:55.108Z,4.23
2022-12-28T06:11:26.259Z,6.83
2022-12-28T06:13:54.956Z,2.77
2022-12-28T06:16:25.371Z,4.13
2022-12-28T06:18:55.325Z,3.93
2022-12-28T06:21:25.464Z,2.63
2022-12-28T06:23:57.639Z,3.60
2022-12-28T06:26:26.680Z,3.57
2022-12-28T06:28:54.945Z,3.73
2022-12-28T06:31:24.952Z,2.70
2022-12-28T06:33:57.205Z,5.20
2022-12-28T06:36:27.878Z,3.23
2022-12-28T06:38:58.923Z,4.53
2022-12-28T06:41:28.337Z,4.10
2022-12-28T06:43:57.393Z,4.70
2022-12-28T06:46:27.601Z,2.93
2022-12-28T06:48:57.842Z,4.67
2022-12-28T06:51:27.425Z,3.23
2022-12-28T06:53:56.282Z,5.00
2022-12-28T06:56:26.013Z,5.03
2022-12-28T06:59:00.524Z,5.23
2022-12-28T07:01:33.014Z,4.53
2022-12-28T07:04:03.707Z,7.67
2022-12-28T07:06:36.196Z,3.60
2022-12-28T07:09:06.429Z,6.20
2022-12-28T07:11:35.475Z,4.40
2022-12-28T07:14:03.700Z,8.30
2022-12-28T07:19:00.327Z,7.13
2022-12-28T07:21:31.747Z,4.07
2022-12-28T07:24:00.567Z,5.13
2022-12-28T07:26:31.160Z,4.93
2022-12-28T07:29:01.130Z,6.70
2022-12-28T07:31:31.749Z,5.90
2022-12-28T07:34:01.777Z,6.73
2022-12-28T07:36:32.852Z,8.80
2022-12-28T07:39:01.578Z,5.63
2022-12-28T07:41:32.895Z,7.73
2022-12-28T07:44:01.473Z,7.20
2022-12-28T07:46:31.551Z,7.50
2022-12-28T07:49:00.948Z,5.17
2022-12-28T07:51:32.129Z,6.93
2022-12-28T07:54:01.723Z,6.57
2022-12-28T07:56:30.954Z,6.23
2022-12-28T07:59:00.768Z,6.20
2022-12-28T08:01:31.835Z,6.07
2022-12-28T08:04:02.050Z,7.43
2022-12-28T08:06:34.220Z,5.70
2022-12-28T08:09:02.845Z,8.70
2022-12-28T08:11:33.625Z,6.13
2022-12-28T08:14:02.463Z,6.07
2022-12-28T08:16:33.512Z,4.63
2022-12-28T08:19:01.811Z,4.27
2022-12-28T08:21:33.390Z,7.50
2022-12-28T08:24:02.460Z,3.63
2022-12-28T08:26:32.551Z,4.40
2022-12-28T08:29:03.038Z,5.07
2022-12-28T08:31:34.088Z,6.73
2022-12-28T08:34:04.876Z,4.60
2022-12-28T08:36:34.675Z,5.33
2022-12-28T08:39:03.756Z,3.87
2022-12-28T08:41:32.562Z,6.57
2022-12-28T08:44:01.226Z,7.00
2022-12-28T08:46:32.904Z,3.47
2022-12-28T08:49:01.783Z,6.00
2022-12-28T08:51:33.140Z,3.67
2022-12-28T08:54:03.963Z,7.00
2022-12-28T08:56:34.088Z,5.70
2022-12-28T08:59:02.854Z,4.93
2022-12-28T09:01:37.290Z,4.57
2022-12-28T09:04:12.946Z,3.83
2022-12-28T09:06:41.483Z,4.20
2022-12-28T09:09:14.653Z,6.40
2022-12-28T09:11:47.298Z,5.83
2022-12-28T09:14:23.274Z,4.73
2022-12-28T09:16:52.825Z,7.37
2022-12-28T09:19:21.107Z,4.43
2022-12-28T09:21:52.563Z,7.53
2022-12-28T09:24:22.516Z,4.47
2022-12-28T09:26:52.961Z,3.77
2022-12-28T09:29:21.846Z,5.73
2022-12-28T09:31:50.073Z,6.73
2022-12-28T09:37:07.373Z,6.10
2022-12-28T09:39:37.233Z,7.53
2022-12-28T09:42:12.040Z,4.47
2022-12-28T09:44:49.350Z,7.87
2022-12-28T09:47:32.787Z,7.37
2022-12-28T09:50:30.170Z,5.77
2022-12-28T09:53:29.356Z,7.03
2022-12-28T09:56:06.471Z,6.23
2022-12-28T09:58:43.982Z,4.47
2022-12-28T10:01:17.558Z,6.50
2022-12-28T10:03:47.523Z,6.80
2022-12-28T10:06:17.373Z,5.30
2022-12-28T10:08:49.164Z,10.17
2022-12-28T10:11:22.240Z,9.70
2022-12-28T10:13:56.809Z,8.50
2022-12-28T10:16:28.174Z,8.77
2022-12-28T10:18:56.777Z,6.90
2022-12-28T10:21:32.512Z,6.73
2022-12-28T10:26:52.340Z,4.97
2022-12-28T10:29:22.899Z,5.80
2022-12-28T10:32:00.118Z,10.23
2022-12-28T10:34:36.948Z,6.57
2022-12-28T10:37:14.540Z,4.80
2022-12-28T10:39:51.136Z,6.80
2022-12-28T10:42:26.435Z,4.07
2022-12-28T10:44:59.276Z,9.27
2022-12-28T10:47:31.529Z,11.67
2022-12-28T10:50:35.466Z,8.83
2022-12-28T10:52:58.292Z,12.87
2022-12-28T10:55:31.447Z,9.23
2022-12-28T11:00:58.154Z,11.37
2022-12-28T11:03:28.500Z,6.93
2022-12-28T11:06:15.360Z,8.03
2022-12-28T11:08:45.537Z,11.40
2022-12-28T11:11:20.796Z,8.30
2022-12-28T11:13:53.711Z,7.77
2022-12-28T11:16:23.519Z,7.57
2022-12-28T11:18:52.268Z,7.27
2022-12-28T11:21:22.216Z,7.27
2022-12-28T11:23:52.310Z,11.10
2022-12-28T11:26:21.662Z,8.07
2022-12-28T11:28:51.920Z,9.20
2022-12-28T11:31:28.421Z,8.90
2022-12-28T11:34:00.048Z,9.93
2022-12-28T11:36:29.360Z,8.20
2022-12-28T11:38:58.424Z,7.87
2022-12-28T11:41:51.191Z,6.43
2022-12-28T11:44:52.943Z,8.13
2022-12-28T11:47:32.847Z,8.57
2022-12-28T11:50:42.392Z,9.07
2022-12-28T11:53:51.054Z,8.47
2022-12-28T11:56:25.112Z,9.70
2022-12-28T11:59:23.529Z,8.33
2022-12-28T12:01:53.894Z,8.27
2022-12-28T12:04:38.055Z,6.77
2022-12-28T12:07:23.651Z,7.90
2022-12-28T12:10:21.191Z,6.47
2022-12-28T12:12:52.168Z,5.50
2022-12-28T12:15:23.193Z,10.60
2022-12-28T12:17:56.311Z,6.33
2022-12-28T12:20:48.462Z,6.10
2022-12-28T12:23:26.801Z,5.30
2022-12-28T12:25:57.223Z,6.63
2022-12-28T12:28:35.150Z,6.93
2022-12-28T12:31:06.681Z,9.90
2022-12-28T12:33:37.398Z,6.13
2022-12-28T12:36:23.786Z,7.80
2022-12-28T12:39:11.375Z,5.90
2022-12-28T12:41:49.884Z,8.20
2022-12-28T12:44:26.659Z,6.30
2022-12-28T12:47:24.540Z,7.07
2022-12-28T12:50:26.951Z,4.67
2022-12-28T12:53:07.450Z,6.27
2022-12-28T12:55:50.600Z,5.60
2022-12-28T12:58:25.107Z,7.37
2022-12-28T13:01:16.011Z,6.27
2022-12-28T13:03:53.037Z,5.93
2022-12-28T13:06:25.417Z,8.53
2022-12-28T13:09:01.796Z,8.23
2022-12-28T13:11:38.082Z,5.33
2022-12-28T13:14:07.688Z,7.47
2022-12-28T13:16:35.964Z,6.63
2022-12-28T13:19:07.103Z,5.77
2022-12-28T13:21:43.023Z,6.50
2022-12-28T13:24:22.873Z,4.37
2022-12-28T13:26:51.558Z,6.83
2022-12-28T13:29:21.923Z,9.60
2022-12-28T13:31:51.441Z,6.10
2022-12-28T13:34:24.360Z,5.07
2022-12-28T13:36:56.562Z,2.83
2022-12-28T13:39:28.086Z,3.33
2022-12-28T13:41:59.422Z,5.70
2022-12-28T13:44:35.772Z,6.73
2022-12-28T13:47:08.666Z,7.07
2022-12-28T13:49:42.937Z,8.53
2022-12-28T13:52:16.289Z,9.27
2022-12-28T13:54:51.058Z,5.87
2022-12-28T13:57:45.844Z,5.87
2022-12-28T14:00:10.277Z,3.97
2022-12-28T14:02:41.749Z,7.03
2022-12-28T14:05:17.649Z,4.50
2022-12-28T14:07:46.550Z,3.60
2022-12-28T14:10:16.751Z,2.73
2022-12-28T14:12:45.874Z,6.10
2022-12-28T14:15:15.025Z,6.83
2022-12-28T14:17:44.686Z,5.13
2022-12-28T14:20:13.334Z,4.47
2022-12-28T14:22:42.546Z,6.37
2022-12-28T14:25:12.776Z,5.03
2022-12-28T14:27:45.619Z,5.47
2022-12-28T14:30:26.106Z,7.57
2022-12-28T14:32:55.249Z,4.40
2022-12-28T14:35:25.623Z,5.83
2022-12-28T14:37:56.384Z,6.80
2022-12-28T14:40:31.310Z,4.80
2022-12-28T14:43:04.442Z,4.17
2022-12-28T14:46:06.717Z,4.40
2022-12-28T14:48:34.840Z,4.27
2022-12-28T14:51:06.274Z,6.70
2022-12-28T14:53:34.602Z,8.10
2022-12-28T14:56:08.193Z,5.77
2022-12-28T14:58:50.783Z,3.13
2022-12-28T15:01:20.978Z,6.43
2022-12-28T15:03:51.807Z,3.13
2022-12-28T15:06:20.871Z,6.70
2022-12-28T15:08:50.355Z,4.63
2022-12-28T15:11:20.045Z,6.17
2022-12-28T15:13:50.275Z,4.37
2022-12-28T15:16:20.760Z,3.50
2022-12-28T15:18:49.056Z,4.07
2022-12-28T15:21:19.503Z,3.57
2022-12-28T15:23:50.289Z,6.00
2022-12-28T15:26:18.658Z,5.17
2022-12-28T15:28:47.202Z,5.47
2022-12-28T15:31:18.859Z,4.93
2022-12-28T15:33:47.956Z,4.07
2022-12-28T15:36:18.323Z,5.97
2022-12-28T15:38:47.137Z,5.07
2022-12-28T15:41:33.466Z,6.37
2022-12-28T15:44:01.777Z,7.17
2022-12-28T15:46:31.714Z,5.43
2022-12-28T15:49:02.777Z,4.20
2022-12-28T15:51:31.067Z,5.73
2022-12-28T15:53:59.329Z,6.13
2022-12-28T15:56:29.538Z,4.93
2022-12-28T15:58:59.321Z,4.20
2022-12-28T16:01:30.158Z,3.83
2022-12-28T16:04:02.237Z,5.20
2022-12-28T16:06:32.164Z,5.50
2022-12-28T16:09:03.444Z,5.90
2022-12-28T16:11:34.177Z,4.37
2022-12-28T16:14:05.134Z,8.00
2022-12-28T16:16:37.510Z,6.50
2022-12-28T16:19:09.015Z,6.17
2022-12-28T16:21:37.639Z,5.43
2022-12-28T16:24:07.036Z,4.40
2022-12-28T16:26:35.573Z,6.93
2022-12-28T16:29:04.163Z,4.70
2022-12-28T16:31:35.369Z,4.87
2022-12-28T16:34:05.753Z,5.40
2022-12-28T16:36:36.178Z,4.33
2022-12-28T16:39:07.220Z,6.03
2022-12-28T16:41:37.518Z,6.23
2022-12-28T16:44:09.372Z,3.73
2022-12-28T16:46:37.719Z,4.40
2022-12-28T16:49:06.886Z,6.97
2022-12-28T16:51:36.580Z,5.57
2022-12-28T16:54:05.265Z,5.20
2022-12-28T16:56:35.641Z,3.83
2022-12-28T16:59:03.985Z,7.07
2022-12-28T17:01:33.262Z,6.63
2022-12-28T17:04:04.071Z,6.03
2022-12-28T17:06:33.676Z,5.33
2022-12-28T17:09:04.381Z,6.37
2022-12-28T17:11:33.840Z,4.13
2022-12-28T17:14:03.368Z,6.60
2022-12-28T17:16:32.774Z,5.07
2022-12-28T17:19:01.459Z,5.60
2022-12-28T17:21:30.359Z,8.77
2022-12-28T17:23:58.917Z,6.80
2022-12-28T17:26:28.628Z,5.93
2022-12-28T17:28:57.397Z,8.60
2022-12-28T17:31:26.015Z,5.50
2022-12-28T17:33:55.659Z,5.67
2022-12-28T17:36:23.971Z,4.30
2022-12-28T17:38:52.315Z,7.17
2022-12-28T17:41:23.192Z,6.20
2022-12-28T17:43:54.505Z,7.47
2022-12-28T17:46:23.353Z,7.37
2022-12-28T17:48:53.192Z,7.70
2022-12-28T17:51:23.794Z,5.87
2022-12-28T17:53:52.661Z,6.13
2022-12-28T17:56:20.981Z,4.93
2022-12-28T17:58:49.626Z,9.77
2022-12-28T18:01:19.422Z,9.00
2022-12-28T18:03:47.793Z,6.97
2022-12-28T18:06:16.168Z,7.13
2022-12-28T18:08:44.586Z,6.20
2022-12-28T18:11:13.076Z,6.40
2022-12-28T18:13:42.388Z,7.57
2022-12-28T18:16:15.644Z,5.60
2022-12-28T18:18:45.355Z,6.57
2022-12-28T18:21:21.004Z,6.30
2022-12-28T18:23:51.859Z,6.43
2022-12-28T18:26:22.790Z,6.70
2022-12-28T18:28:51.449Z,9.30
2022-12-28T18:31:20.680Z,6.37
2022-12-28T18:33:50.683Z,9.07
2022-12-28T18:36:19.297Z,7.97
2022-12-28T18:38:48.446Z,8.37
2022-12-28T18:41:18.681Z,7.77
2022-12-28T18:43:47.051Z,8.37
2022-12-28T18:46:15.940Z,8.43
2022-12-28T18:48:44.253Z,6.90
2022-12-28T18:51:17.113Z,8.17
2022-12-28T18:53:45.721Z,9.50
2022-12-28T18:56:16.029Z,7.37
2022-12-28T18:58:45.165Z,7.00
2022-12-28T19:04:03.743Z,6.27
2022-12-28T19:06:34.755Z,9.67
2022-12-28T19:09:03.858Z,7.43
2022-12-28T19:11:32.354Z,6.77
2022-12-28T19:14:02.459Z,7.73
2022-12-28T19:16:32.052Z,7.53
2022-12-28T19:19:00.881Z,6.97
2022-12-28T19:21:30.896Z,8.83
2022-12-28T19:24:03.609Z,7.73
2022-12-28T19:26:33.472Z,7.17
2022-12-28T19:29:03.317Z,8.10
2022-12-28T19:31:33.768Z,8.30
2022-12-28T19:34:02.171Z,6.00
2022-12-28T19:36:30.448Z,6.10
2022-12-28T19:39:00.127Z,6.40
2022-12-28T19:41:28.367Z,6.57
2022-12-28T19:43:56.981Z,8.83
2022-12-28T19:46:31.378Z,8.07
2022-12-28T19:49:01.482Z,8.10
2022-12-28T19:51:32.155Z,6.83
2022-12-28T19:54:02.960Z,6.03
2022-12-28T19:56:32.522Z,6.70
2022-12-28T19:59:06.566Z,8.13
2022-12-28T20:01:37.159Z,7.07
2022-12-28T20:04:13.302Z,7.27
2022-12-28T20:06:43.693Z,7.43
2022-12-28T20:09:15.051Z,6.87
2022-12-28T20:11:45.017Z,5.70
2022-12-28T20:14:14.839Z,6.43
2022-12-28T20:16:44.058Z,6.13
2022-12-28T20:19:12.955Z,7.20
2022-12-28T20:21:42.489Z,11.90
2022-12-28T20:24:14.882Z,4.17
2022-12-28T20:26:43.225Z,6.17
2022-12-28T20:29:13.498Z,7.80
2022-12-28T20:31:41.850Z,5.83
2022-12-28T20:34:10.387Z,5.93
2022-12-28T20:36:38.662Z,7.07
2022-12-28T20:39:08.751Z,4.53
2022-12-28T20:41:56.852Z,5.53
2022-12-28T20:44:28.176Z,5.53
2022-12-28T20:46:57.664Z,6.50
2022-12-28T20:49:27.534Z,6.77
2022-12-28T20:51:56.246Z,6.80
2022-12-28T20:54:25.176Z,5.67
2022-12-28T20:56:56.327Z,6.87
2022-12-28T20:59:26.028Z,6.10
2022-12-28T21:01:54.869Z,8.57
2022-12-28T21:04:24.535Z,6.67
2022-12-28T21:06:53.227Z,6.20
2022-12-28T21:09:21.672Z,8.33
2022-12-28T21:11:49.997Z,10.43
2022-12-28T21:14:19.747Z,9.50
2022-12-28T21:16:48.420Z,7.40
2022-12-28T21:19:16.879Z,7.40
2022-12-28T21:21:45.144Z,5.90
2022-12-28T21:24:13.360Z,5.27
2022-12-28T21:26:41.626Z,5.23
2022-12-28T21:29:10.260Z,6.17
2022-12-28T21:31:40.186Z,5.73
2022-12-28T21:34:09.647Z,6.90
2022-12-28T21:36:37.932Z,6.67
2022-12-28T21:39:08.434Z,4.83
2022-12-28T21:41:52.810Z,4.47
2022-12-28T21:44:22.653Z,8.03
2022-12-28T21:46:53.362Z,6.23
2022-12-28T21:49:22.306Z,6.03
2022-12-28T21:51:51.524Z,5.10
2022-12-28T21:54:22.614Z,5.33
2022-12-28T21:56:53.571Z,4.87
2022-12-28T21:59:22.642Z,5.03
2022-12-28T22:02:06.921Z,4.70
2022-12-28T22:04:58.532Z,5.43
2022-12-28T22:07:30.959Z,3.53
2022-12-28T22:10:16.562Z,3.67
2022-12-28T22:12:44.860Z,5.50
2022-12-28T22:15:32.487Z,3.87
2022-12-28T22:18:07.063Z,6.13
2022-12-28T22:20:37.190Z,3.87
2022-12-28T22:23:07.460Z,3.80
2022-12-28T22:25:37.536Z,3.60
2022-12-28T22:28:07.419Z,4.10
2022-12-28T22:30:37.568Z,4.27
2022-12-28T22:33:07.530Z,4.27
2022-12-28T22:35:36.248Z,3.80
2022-12-28T22:38:04.400Z,3.27
2022-12-28T22:40:32.648Z,3.33
2022-12-28T22:43:00.903Z,4.77
2022-12-28T22:45:29.349Z,3.83
2022-12-28T22:47:59.541Z,4.37
2022-12-28T22:50:29.718Z,5.73
2022-12-28T22:52:58.351Z,4.27
2022-12-28T22:55:26.627Z,4.67
2022-12-28T22:57:57.335Z,4.27
2022-12-28T23:00:25.711Z,3.37
2022-12-28T23:02:54.131Z,4.80
2022-12-28T23:05:22.520Z,4.70
2022-12-28T23:07:52.124Z,4.17
2022-12-28T23:10:20.446Z,3.33
2022-12-28T23:12:48.746Z,2.27
2022-12-28T23:15:16.330Z,4.07
2022-12-28T23:17:44.606Z,2.43
2022-12-28T23:20:30.778Z,1.70
2022-12-28T23:23:17.947Z,5.37
2022-12-28T23:26:03.402Z,3.17
2022-12-28T23:28:32.051Z,1.20
2022-12-28T23:31:00.485Z,2.17
2022-12-28T23:33:28.836Z,1.67
2022-12-28T23:35:57.146Z,3.00
2022-12-28T23:38:26.791Z,1.47
2022-12-28T23:41:15.151Z,3.70
2022-12-28T23:43:43.390Z,1.87
2022-12-28T23:46:11.686Z,2.00
2022-12-28T23:48:39.984Z,1.73
2022-12-28T23:51:09.010Z,2.10
2022-12-28T23:53:38.586Z,3.10
2022-12-28T23:56:07.887Z,2.37
2022-12-28T23:58:36.137Z,1.97
